createdAt,value
2018-09-30T00:01:35.171Z,5.60
2018-09-30T00:04:08.046Z,5.70
2018-09-30T00:06:40.721Z,5.60
2018-09-30T00:09:13.658Z,5.70
2018-09-30T00:11:46.566Z,5.70
2018-09-30T00:14:19.315Z,5.70
2018-09-30T00:16:52.146Z,5.70
2018-09-30T00:19:25.076Z,5.60
2018-09-30T00:21:57.737Z,5.60
2018-09-30T00:24:36.166Z,5.50
2018-09-30T00:27:14.726Z,5.50
2018-09-30T00:29:47.621Z,5.40
2018-09-30T00:32:20.328Z,5.40
2018-09-30T00:34:53.126Z,5.40
2018-09-30T00:37:25.859Z,5.30
2018-09-30T00:39:58.566Z,5.30
2018-09-30T00:42:31.310Z,5.30
2018-09-30T00:45:04.178Z,5.20
2018-09-30T00:47:36.942Z,5.20
2018-09-30T00:50:10.004Z,5.10
2018-09-30T00:52:42.857Z,5.10
2018-09-30T00:55:15.634Z,5.00
2018-09-30T00:57:48.314Z,5.00
2018-09-30T01:00:21.046Z,4.90
2018-09-30T01:02:53.842Z,4.90
2018-09-30T01:05:26.606Z,4.90
2018-09-30T01:07:59.374Z,4.90
2018-09-30T01:10:32.166Z,4.80
2018-09-30T01:13:04.918Z,4.80
2018-09-30T01:15:37.689Z,4.80
2018-09-30T01:18:10.405Z,4.90
2018-09-30T01:20:43.150Z,4.90
2018-09-30T01:23:15.906Z,5.00
2018-09-30T01:25:48.813Z,4.90
2018-09-30T01:28:21.541Z,4.90
2018-09-30T01:30:54.402Z,4.90
2018-09-30T01:33:27.534Z,4.90
2018-09-30T01:36:00.361Z,4.80
2018-09-30T01:38:33.317Z,4.80
2018-09-30T01:41:06.074Z,4.80
2018-09-30T01:43:38.881Z,4.80
2018-09-30T01:46:11.553Z,4.60
2018-09-30T01:48:44.510Z,4.50
2018-09-30T01:51:17.219Z,4.40
2018-09-30T01:53:49.974Z,4.30
2018-09-30T01:56:22.878Z,4.30
2018-09-30T01:58:55.674Z,4.20
2018-09-30T02:01:28.571Z,4.30
2018-09-30T02:04:01.282Z,4.30
2018-09-30T02:06:34.043Z,4.30
2018-09-30T02:09:06.802Z,4.30
2018-09-30T02:11:39.738Z,4.30
2018-09-30T02:14:12.606Z,4.40
2018-09-30T02:16:45.523Z,4.40
2018-09-30T02:19:18.441Z,4.50
2018-09-30T02:21:51.119Z,4.50
2018-09-30T02:24:23.902Z,4.60
2018-09-30T02:26:56.649Z,4.60
2018-09-30T02:29:29.434Z,4.60
2018-09-30T02:32:02.647Z,4.50
2018-09-30T02:34:35.364Z,4.50
2018-09-30T02:37:08.154Z,4.50
2018-09-30T02:39:41.035Z,4.40
2018-09-30T02:42:13.938Z,4.40
2018-09-30T02:44:46.686Z,4.40
2018-09-30T02:47:19.629Z,4.40
2018-09-30T02:49:52.550Z,4.30
2018-09-30T02:52:25.518Z,4.30
2018-09-30T02:54:58.333Z,4.30
2018-09-30T02:57:31.081Z,4.20
2018-09-30T03:00:03.841Z,4.20
2018-09-30T03:02:36.674Z,4.20
2018-09-30T03:05:09.470Z,4.20
2018-09-30T03:07:47.965Z,4.20
2018-09-30T03:10:20.701Z,4.20
2018-09-30T03:12:53.521Z,4.10
2018-09-30T03:15:26.321Z,4.10
2018-09-30T03:17:58.977Z,4.10
2018-09-30T03:20:31.706Z,4.10
2018-09-30T03:23:04.415Z,4.10
2018-09-30T03:25:37.405Z,4.00
2018-09-30T03:28:10.142Z,4.10
2018-09-30T03:30:43.074Z,4.00
2018-09-30T03:33:15.930Z,4.00
2018-09-30T03:35:48.673Z,3.90
2018-09-30T03:38:21.389Z,3.90
2018-09-30T03:40:54.218Z,3.90
2018-09-30T03:43:27.030Z,3.90
2018-09-30T03:45:59.978Z,3.80
2018-09-30T03:48:32.858Z,3.60
2018-09-30T03:51:05.643Z,3.60
2018-09-30T03:53:38.354Z,3.50
2018-09-30T03:56:11.148Z,3.50
2018-09-30T03:58:44.102Z,3.50
2018-09-30T04:01:16.793Z,3.40
2018-09-30T04:03:49.462Z,3.30
2018-09-30T04:06:22.295Z,3.20
2018-09-30T04:08:55.169Z,3.10
2018-09-30T04:11:28.146Z,3.10
2018-09-30T04:14:00.910Z,3.10
2018-09-30T04:16:33.834Z,3.20
2018-09-30T04:19:06.625Z,3.20
2018-09-30T04:21:39.424Z,3.30
2018-09-30T04:24:12.177Z,3.30
2018-09-30T04:26:44.954Z,3.30
2018-09-30T04:29:17.738Z,3.20
2018-09-30T04:31:50.721Z,3.20
2018-09-30T04:34:23.425Z,3.10
2018-09-30T04:36:56.161Z,3.10
2018-09-30T04:39:28.895Z,3.10
2018-09-30T04:42:01.706Z,3.10
2018-09-30T04:44:34.497Z,3.20
2018-09-30T04:47:07.281Z,3.20
2018-09-30T04:49:40.150Z,3.30
2018-09-30T04:52:12.846Z,3.30
2018-09-30T04:54:45.705Z,3.30
2018-09-30T04:57:18.402Z,3.30
2018-09-30T04:59:51.122Z,3.30
2018-09-30T05:02:23.954Z,3.30
2018-09-30T05:04:56.756Z,3.30
2018-09-30T05:07:29.497Z,3.30
2018-09-30T05:10:02.274Z,3.30
2018-09-30T05:12:34.977Z,3.30
2018-09-30T05:15:07.749Z,3.30
2018-09-30T05:17:40.734Z,3.30
2018-09-30T05:20:13.670Z,3.20
2018-09-30T05:22:46.550Z,3.20
2018-09-30T05:25:19.331Z,3.20
2018-09-30T05:27:52.035Z,3.10
2018-09-30T05:30:24.835Z,3.20
2018-09-30T05:32:57.646Z,3.30
2018-09-30T05:35:30.485Z,3.30
2018-09-30T05:38:03.394Z,3.40
2018-09-30T05:40:36.342Z,3.50
2018-09-30T05:43:09.066Z,3.60
2018-09-30T05:45:41.866Z,3.60
2018-09-30T05:48:14.854Z,3.70
2018-09-30T05:50:47.803Z,3.80
2018-09-30T05:53:20.633Z,4.00
2018-09-30T05:55:53.330Z,4.30
2018-09-30T05:58:26.143Z,4.70
2018-09-30T06:00:59.041Z,5.30
2018-09-30T06:03:31.949Z,6.00
2018-09-30T06:06:04.697Z,6.70
2018-09-30T06:08:37.590Z,7.30
2018-09-30T06:11:10.391Z,7.90
2018-09-30T06:13:43.374Z,8.40
2018-09-30T06:16:16.102Z,9.00
2018-09-30T06:18:48.907Z,9.60
2018-09-30T06:21:21.610Z,10.20
2018-09-30T06:23:54.508Z,10.90
2018-09-30T06:26:27.255Z,11.50
2018-09-30T06:28:59.928Z,12.00
2018-09-30T06:31:32.658Z,12.50
2018-09-30T06:34:05.609Z,13.00
2018-09-30T06:36:39.659Z,13.30
2018-09-30T06:39:12.437Z,13.60
2018-09-30T06:41:45.245Z,13.90
2018-09-30T06:44:18.157Z,14.10
2018-09-30T06:46:50.836Z,14.60
2018-09-30T06:49:23.597Z,15.00
2018-09-30T06:51:56.521Z,15.50
2018-09-30T06:54:29.629Z,15.70
2018-09-30T06:57:02.406Z,16.00
2018-09-30T06:59:35.138Z,16.60
2018-09-30T07:02:07.923Z,16.80
2018-09-30T07:04:40.644Z,16.90
2018-09-30T07:07:13.458Z,16.80
2018-09-30T07:09:46.130Z,17.00
2018-09-30T07:12:18.993Z,17.40
2018-09-30T07:14:51.946Z,17.80
2018-09-30T07:17:24.774Z,18.00
2018-09-30T07:19:57.526Z,18.10
2018-09-30T07:22:30.376Z,18.30
2018-09-30T07:25:03.114Z,18.80
2018-09-30T07:27:35.893Z,18.70
2018-09-30T07:30:08.638Z,18.50
2018-09-30T07:32:41.382Z,19.00
2018-09-30T07:35:14.306Z,19.30
2018-09-30T07:37:47.085Z,18.90
2018-09-30T07:40:20.127Z,19.10
2018-09-30T07:42:53.095Z,19.20
2018-09-30T07:45:26.134Z,19.80
2018-09-30T07:48:00.203Z,20.30
2018-09-30T07:50:33.972Z,20.30
2018-09-30T07:53:07.343Z,20.40
2018-09-30T07:55:40.209Z,20.80
2018-09-30T07:58:13.380Z,20.80
2018-09-30T08:00:46.669Z,21.20
2018-09-30T08:03:19.794Z,21.40
2018-09-30T08:05:54.529Z,22.00
2018-09-30T08:08:27.390Z,21.90
2018-09-30T08:13:41.302Z,22.00
2018-09-30T08:16:14.159Z,22.30
2018-09-30T08:18:47.138Z,22.60
2018-09-30T08:21:20.312Z,23.00
2018-09-30T08:23:53.138Z,22.80
2018-09-30T08:26:25.929Z,22.70
2018-09-30T08:28:59.127Z,23.20
2018-09-30T08:31:31.887Z,23.10
2018-09-30T08:34:04.839Z,23.70
2018-09-30T08:36:37.647Z,24.50
2018-09-30T08:39:10.536Z,24.70
2018-09-30T08:41:43.258Z,24.70
2018-09-30T08:44:16.175Z,24.80
2018-09-30T08:46:48.943Z,24.40
2018-09-30T08:49:21.879Z,25.10
2018-09-30T08:51:54.598Z,25.20
2018-09-30T08:54:27.385Z,26.00
2018-09-30T08:57:00.410Z,26.80
2018-09-30T08:59:33.224Z,26.80
2018-09-30T09:02:06.067Z,27.00
2018-09-30T09:04:38.883Z,27.60
2018-09-30T09:07:11.670Z,28.00
2018-09-30T09:09:44.387Z,28.20
2018-09-30T09:12:17.599Z,28.00
2018-09-30T09:14:53.270Z,28.20
2018-09-30T09:17:26.137Z,28.30
2018-09-30T09:19:58.981Z,28.50
2018-09-30T09:22:31.745Z,28.00
2018-09-30T09:25:09.423Z,28.00
2018-09-30T09:27:47.819Z,28.40
2018-09-30T09:30:20.634Z,28.40
2018-09-30T09:32:53.403Z,28.00
2018-09-30T09:35:26.090Z,28.90
2018-09-30T09:37:58.886Z,28.50
2018-09-30T09:40:32.000Z,29.10
2018-09-30T09:43:05.177Z,29.60
2018-09-30T09:45:38.226Z,29.10
2018-09-30T09:48:14.802Z,29.40
2018-09-30T09:50:47.630Z,29.80
2018-09-30T09:53:20.534Z,29.60
2018-09-30T09:55:53.411Z,29.80
2018-09-30T09:58:26.402Z,30.70
2018-09-30T10:01:03.949Z,31.10
2018-09-30T10:03:36.783Z,30.80
2018-09-30T10:06:09.698Z,31.00
2018-09-30T10:08:42.667Z,31.40
2018-09-30T10:11:15.381Z,30.50
2018-09-30T10:13:48.100Z,30.30
2018-09-30T10:16:20.973Z,30.50
2018-09-30T10:18:53.742Z,31.10
2018-09-30T10:21:26.502Z,31.80
2018-09-30T10:23:59.621Z,31.10
2018-09-30T10:26:32.394Z,30.90
2018-09-30T10:29:05.162Z,31.70
2018-09-30T10:31:38.125Z,32.30
2018-09-30T10:34:10.871Z,31.90
2018-09-30T10:36:43.558Z,31.00
2018-09-30T10:39:16.471Z,31.10
2018-09-30T10:41:49.180Z,30.70
2018-09-30T10:44:22.044Z,31.50
2018-09-30T10:46:54.881Z,31.70
2018-09-30T10:49:27.551Z,31.30
2018-09-30T10:52:00.482Z,31.30
2018-09-30T10:54:33.490Z,31.20
2018-09-30T10:57:06.307Z,30.70
2018-09-30T10:59:39.010Z,30.80
2018-09-30T11:02:11.670Z,31.10
2018-09-30T11:04:44.620Z,31.60
2018-09-30T11:07:17.351Z,31.20
2018-09-30T11:09:50.149Z,30.50
2018-09-30T11:12:22.721Z,30.80
2018-09-30T11:14:55.562Z,31.10
2018-09-30T11:17:28.554Z,31.80
2018-09-30T11:20:01.341Z,31.20
2018-09-30T11:22:34.133Z,31.60
2018-09-30T11:25:06.918Z,31.60
2018-09-30T11:27:40.763Z,31.40
2018-09-30T11:30:13.617Z,31.50
2018-09-30T11:32:46.391Z,31.60
2018-09-30T11:35:19.326Z,31.80
2018-09-30T11:37:52.098Z,33.00
2018-09-30T11:40:24.910Z,32.90
2018-09-30T11:42:57.838Z,33.70
2018-09-30T11:45:30.723Z,34.00
2018-09-30T11:48:03.522Z,33.90
2018-09-30T11:50:36.250Z,34.40
2018-09-30T11:53:09.160Z,33.70
2018-09-30T11:55:41.834Z,33.10
2018-09-30T11:58:14.670Z,32.80
2018-09-30T12:00:47.500Z,32.80
2018-09-30T12:03:20.310Z,33.00
2018-09-30T12:05:53.075Z,33.70
2018-09-30T12:08:25.901Z,33.50
2018-09-30T12:10:58.602Z,33.30
2018-09-30T12:13:31.379Z,33.60
2018-09-30T12:16:04.118Z,34.00
2018-09-30T12:18:36.832Z,33.80
2018-09-30T12:21:09.787Z,34.00
2018-09-30T12:23:42.638Z,34.20
2018-09-30T12:26:15.342Z,34.50
2018-09-30T12:28:48.043Z,33.70
2018-09-30T12:31:20.792Z,34.00
2018-09-30T12:33:53.593Z,34.60
2018-09-30T12:36:26.334Z,34.30
2018-09-30T12:38:59.308Z,34.50
2018-09-30T12:41:32.049Z,34.30
2018-09-30T12:44:04.888Z,34.10
2018-09-30T12:46:37.807Z,33.80
2018-09-30T12:49:10.550Z,33.40
2018-09-30T12:51:43.243Z,33.60
2018-09-30T12:54:16.219Z,33.60
2018-09-30T12:56:48.987Z,33.90
2018-09-30T12:59:21.787Z,35.00
2018-09-30T13:01:54.666Z,35.40
2018-09-30T13:04:27.546Z,35.50
2018-09-30T13:07:00.409Z,35.30
2018-09-30T13:09:33.146Z,34.70
2018-09-30T13:12:05.971Z,34.20
2018-09-30T13:14:38.686Z,33.60
2018-09-30T13:17:11.673Z,33.50
2018-09-30T13:19:44.549Z,33.20
2018-09-30T13:22:17.486Z,33.40
2018-09-30T13:24:50.221Z,33.80
2018-09-30T13:27:23.019Z,33.40
2018-09-30T13:29:55.815Z,32.80
2018-09-30T13:32:28.681Z,32.30
2018-09-30T13:35:01.614Z,32.60
2018-09-30T13:37:34.650Z,33.00
2018-09-30T13:40:07.493Z,33.50
2018-09-30T13:42:40.277Z,33.50
2018-09-30T13:45:13.210Z,32.90
2018-09-30T13:47:45.950Z,32.40
2018-09-30T13:50:18.866Z,32.20
2018-09-30T13:52:52.305Z,31.60
2018-09-30T13:55:25.230Z,31.70
2018-09-30T13:57:57.885Z,31.80
2018-09-30T14:00:30.946Z,32.40
2018-09-30T14:03:03.800Z,32.60
2018-09-30T14:05:36.606Z,31.60
2018-09-30T14:08:09.457Z,31.20
2018-09-30T14:10:42.258Z,31.30
2018-09-30T14:13:15.027Z,31.30
2018-09-30T14:15:47.974Z,31.20
2018-09-30T14:18:20.735Z,30.80
2018-09-30T14:20:53.462Z,30.00
2018-09-30T14:23:26.242Z,29.90
2018-09-30T14:25:58.993Z,30.00
2018-09-30T14:28:31.897Z,30.30
2018-09-30T14:31:04.905Z,30.50
2018-09-30T14:33:37.690Z,30.50
2018-09-30T14:36:10.684Z,29.90
2018-09-30T14:38:43.611Z,29.40
2018-09-30T14:41:16.359Z,29.30
2018-09-30T14:43:49.090Z,29.30
2018-09-30T14:46:21.770Z,29.70
2018-09-30T14:48:54.708Z,29.90
2018-09-30T14:51:27.457Z,29.80
2018-09-30T14:54:00.442Z,29.70
2018-09-30T14:56:34.180Z,29.60
2018-09-30T14:59:07.098Z,29.20
2018-09-30T15:01:40.027Z,28.20
2018-09-30T15:04:13.131Z,27.40
2018-09-30T15:06:46.110Z,26.80
2018-09-30T15:09:18.811Z,25.80
2018-09-30T15:11:51.718Z,24.80
2018-09-30T15:14:24.695Z,24.40
2018-09-30T15:16:57.447Z,24.00
2018-09-30T15:19:30.194Z,23.90
2018-09-30T15:22:02.910Z,23.60
2018-09-30T15:24:35.605Z,22.70
2018-09-30T15:27:08.427Z,21.40
2018-09-30T15:29:41.194Z,20.50
2018-09-30T15:32:14.008Z,20.30
2018-09-30T15:34:46.954Z,20.80
2018-09-30T15:37:19.742Z,21.10
2018-09-30T15:39:52.698Z,21.50
2018-09-30T15:42:25.668Z,21.90
2018-09-30T15:44:58.689Z,22.20
2018-09-30T15:47:31.688Z,22.00
2018-09-30T15:50:05.366Z,21.30
2018-09-30T15:52:38.266Z,20.80
2018-09-30T15:55:11.050Z,20.00
2018-09-30T15:57:44.205Z,19.30
2018-09-30T16:00:17.116Z,18.80
2018-09-30T16:02:49.902Z,18.90
2018-09-30T16:05:22.962Z,19.30
2018-09-30T16:07:55.939Z,19.70
2018-09-30T16:10:28.810Z,19.90
2018-09-30T16:13:01.921Z,19.90
2018-09-30T16:15:34.526Z,19.90
2018-09-30T16:18:07.250Z,20.00
2018-09-30T16:20:39.942Z,20.10
2018-09-30T16:23:12.915Z,20.10
2018-09-30T16:25:45.696Z,19.60
2018-09-30T16:28:18.680Z,18.70
2018-09-30T16:30:51.550Z,17.90
2018-09-30T16:33:24.538Z,17.10
2018-09-30T16:35:57.218Z,16.50
2018-09-30T16:38:29.998Z,15.80
2018-09-30T16:41:02.986Z,15.40
2018-09-30T16:43:35.739Z,15.00
2018-09-30T16:46:08.555Z,14.60
2018-09-30T16:48:41.346Z,14.30
2018-09-30T16:51:14.115Z,14.00
2018-09-30T16:53:46.858Z,13.70
2018-09-30T16:56:19.606Z,13.50
2018-09-30T16:58:52.419Z,13.30
2018-09-30T17:01:25.166Z,13.10
2018-09-30T17:03:57.969Z,13.00
2018-09-30T17:06:30.693Z,12.90
2018-09-30T17:09:04.401Z,12.70
2018-09-30T17:11:37.139Z,12.60
2018-09-30T17:14:10.011Z,12.40
2018-09-30T17:16:43.023Z,12.30
2018-09-30T17:19:15.794Z,12.20
2018-09-30T17:21:48.654Z,12.10
2018-09-30T17:24:21.493Z,12.10
2018-09-30T17:26:54.386Z,12.00
2018-09-30T17:29:27.098Z,12.00
2018-09-30T17:31:59.894Z,11.90
2018-09-30T17:34:32.970Z,11.90
2018-09-30T17:37:05.897Z,11.80
2018-09-30T17:39:38.683Z,11.70
2018-09-30T17:42:11.326Z,11.70
2018-09-30T17:44:44.106Z,11.80
2018-09-30T17:47:16.922Z,11.80
2018-09-30T17:49:49.918Z,11.80
2018-09-30T17:52:23.422Z,11.80
2018-09-30T17:54:56.294Z,11.80
2018-09-30T17:57:29.022Z,11.80
2018-09-30T18:00:01.934Z,11.70
2018-09-30T18:02:34.762Z,11.60
2018-09-30T18:05:07.666Z,11.50
2018-09-30T18:07:40.573Z,11.40
2018-09-30T18:10:13.283Z,11.20
2018-09-30T18:12:46.261Z,11.10
2018-09-30T18:15:18.990Z,11.10
2018-09-30T18:17:51.909Z,11.00
2018-09-30T18:20:24.903Z,10.90
2018-09-30T18:22:57.602Z,10.80
2018-09-30T18:25:30.306Z,10.90
2018-09-30T18:28:03.053Z,10.90
2018-09-30T18:30:35.824Z,10.80
2018-09-30T18:33:08.575Z,10.70
2018-09-30T18:35:41.502Z,10.60
2018-09-30T18:38:14.310Z,10.50
2018-09-30T18:40:48.514Z,10.40
2018-09-30T18:43:21.381Z,10.40
2018-09-30T18:45:54.150Z,10.30
2018-09-30T18:48:26.929Z,10.20
2018-09-30T18:50:59.828Z,10.10
2018-09-30T18:53:32.621Z,10.10
2018-09-30T18:56:05.668Z,10.00
2018-09-30T18:58:38.274Z,10.10
2018-09-30T19:01:11.030Z,10.10
2018-09-30T19:03:43.735Z,10.10
2018-09-30T19:06:16.530Z,10.10
2018-09-30T19:08:49.309Z,10.10
2018-09-30T19:11:22.257Z,10.10
2018-09-30T19:13:57.547Z,10.10
2018-09-30T19:16:30.190Z,10.10
2018-09-30T19:19:03.451Z,10.10
2018-09-30T19:21:36.083Z,10.00
2018-09-30T19:24:08.820Z,10.10
2018-09-30T19:26:41.634Z,10.10
2018-09-30T19:29:14.430Z,10.20
2018-09-30T19:31:47.322Z,10.20
2018-09-30T19:34:20.030Z,10.30
2018-09-30T19:36:53.053Z,10.40
2018-09-30T19:39:25.922Z,10.40
2018-09-30T19:41:58.751Z,10.40
2018-09-30T19:44:31.632Z,10.40
2018-09-30T19:47:04.408Z,10.40
2018-09-30T19:49:37.373Z,10.30
2018-09-30T19:52:10.186Z,10.10
2018-09-30T19:54:43.181Z,10.00
2018-09-30T19:57:16.178Z,9.90
2018-09-30T19:59:49.274Z,9.80
2018-09-30T20:02:22.106Z,9.70
2018-09-30T20:04:54.994Z,9.70
2018-09-30T20:07:27.729Z,9.70
2018-09-30T20:10:00.521Z,9.70
2018-09-30T20:12:33.301Z,9.80
2018-09-30T20:15:06.094Z,9.80
2018-09-30T20:17:39.067Z,9.80
2018-09-30T20:20:11.900Z,9.70
2018-09-30T20:22:44.665Z,9.70
2018-09-30T20:25:17.494Z,9.70
2018-09-30T20:27:50.243Z,9.70
2018-09-30T20:30:22.953Z,9.70
2018-09-30T20:32:55.589Z,9.70
2018-09-30T20:35:28.446Z,9.70
2018-09-30T20:38:01.257Z,9.70
2018-09-30T20:40:37.713Z,9.70
2018-09-30T20:43:10.342Z,9.60
2018-09-30T20:45:43.154Z,9.70
2018-09-30T20:48:16.026Z,9.70
2018-09-30T20:50:48.826Z,9.70
2018-09-30T20:53:21.647Z,9.70
2018-09-30T20:55:54.501Z,9.70
2018-09-30T20:58:27.370Z,9.60
2018-09-30T21:01:00.079Z,9.60
2018-09-30T21:03:33.058Z,9.60
2018-09-30T21:06:08.457Z,9.60
2018-09-30T21:08:41.478Z,9.60
2018-09-30T21:11:14.228Z,9.60
2018-09-30T21:13:47.172Z,9.60
2018-09-30T21:16:20.065Z,9.70
2018-09-30T21:18:52.955Z,9.70
2018-09-30T21:21:25.710Z,9.70
2018-09-30T21:23:58.490Z,9.70
2018-09-30T21:26:31.386Z,9.70
2018-09-30T21:29:04.121Z,9.70
2018-09-30T21:31:36.915Z,9.60
2018-09-30T21:34:09.845Z,9.60
2018-09-30T21:36:42.571Z,9.50
2018-09-30T21:39:15.354Z,9.50
2018-09-30T21:41:48.174Z,9.50
2018-09-30T21:44:20.950Z,9.50
2018-09-30T21:46:53.650Z,9.40
2018-09-30T21:49:26.542Z,9.50
2018-09-30T21:51:59.239Z,9.50
2018-09-30T21:54:32.015Z,9.50
2018-09-30T21:57:04.916Z,9.50
2018-09-30T21:59:37.609Z,9.50
2018-09-30T22:02:10.398Z,9.50
2018-09-30T22:04:43.170Z,9.50
2018-09-30T22:07:15.882Z,9.40
2018-09-30T22:09:48.576Z,9.30
2018-09-30T22:12:21.325Z,9.20
2018-09-30T22:14:54.090Z,9.20
2018-09-30T22:17:26.841Z,9.20
2018-09-30T22:19:59.607Z,9.30
2018-09-30T22:22:32.546Z,9.30
2018-09-30T22:25:05.290Z,9.20
2018-09-30T22:27:38.171Z,9.20
2018-09-30T22:30:11.286Z,9.20
2018-09-30T22:32:44.074Z,9.20
2018-09-30T22:35:16.858Z,9.10
2018-09-30T22:37:49.609Z,9.00
2018-09-30T22:40:22.487Z,9.00
2018-09-30T22:42:55.246Z,9.00
2018-09-30T22:45:27.970Z,8.90
2018-09-30T22:48:00.700Z,8.90
2018-09-30T22:50:33.450Z,8.90
2018-09-30T22:53:06.200Z,9.00
2018-09-30T22:55:38.969Z,8.90
2018-09-30T22:58:11.818Z,8.90
2018-09-30T23:00:44.723Z,8.80
2018-09-30T23:03:17.583Z,8.80
2018-09-30T23:05:50.306Z,8.70
2018-09-30T23:08:23.106Z,8.70
2018-09-30T23:10:55.924Z,8.60
2018-09-30T23:13:28.611Z,8.70
2018-09-30T23:16:01.330Z,8.70
2018-09-30T23:18:34.054Z,8.60
2018-09-30T23:21:06.834Z,8.50
2018-09-30T23:23:39.667Z,8.50
2018-09-30T23:26:12.349Z,8.50
2018-09-30T23:28:45.085Z,8.50
2018-09-30T23:31:17.953Z,8.50
2018-09-30T23:33:50.785Z,8.40
2018-09-30T23:36:23.491Z,8.40
2018-09-30T23:38:56.266Z,8.40
2018-09-30T23:41:29.013Z,8.40
2018-09-30T23:44:01.855Z,8.50
2018-09-30T23:46:34.645Z,8.50
2018-09-30T23:49:07.594Z,8.60
2018-09-30T23:51:40.486Z,8.50
2018-09-30T23:54:13.422Z,8.50
2018-09-30T23:56:46.286Z,8.50
2018-09-30T23:59:19.079Z,8.50
